Time;durP1;ratioP1;P1;durP2;ratioP2;P2;SDS_P1;SDS_P2;PMS_P1;PMS_P2;Temp;Humidity;BMP_temperature;BMP_pressure;BME280_temperature;BME280_humidity;BME280_pressure;Samples;Min_cycle;Max_cycle;Signal;HPM_P1;HPM_P2
2021/06/20 00:00:40;;;;;;;8.38;5.10;;;;;;;19.15;100.00;100911.92;1712793;82;21553;-77
2021/06/20 00:03:08;;;;;;;6.67;5.20;;;;;;;19.13;100.00;100908.63;1712894;83;21589;-75
2021/06/20 00:05:52;;;;;;;6.45;5.50;;;;;;;19.12;100.00;100909.59;1712819;83;20928;-74
2021/06/20 00:08:19;;;;;;;6.50;5.35;;;;;;;19.11;100.00;100900.90;1712168;83;21648;-76
2021/06/20 00:10:48;;;;;;;5.55;5.00;;;;;;;19.11;100.00;100902.70;1712843;83;21139;-78
2021/06/20 00:13:16;;;;;;;6.35;5.50;;;;;;;19.12;100.00;100907.80;1712826;83;20888;-77
2021/06/20 00:15:46;;;;;;;7.12;5.17;;;;;;;19.12;100.00;100904.33;1712737;83;21074;-76
2021/06/20 00:18:13;;;;;;;5.78;5.28;;;;;;;19.12;100.00;100903.84;1712908;83;21470;-72
2021/06/20 00:20:44;;;;;;;7.28;5.85;;;;;;;19.13;100.00;100908.14;1712615;83;20995;-72
2021/06/20 00:23:12;;;;;;;8.25;6.22;;;;;;;19.14;100.00;100912.44;1712475;83;21093;-74
2021/06/20 00:25:38;;;;;;;7.53;5.65;;;;;;;19.14;100.00;100911.60;1715075;83;20995;-71
2021/06/20 00:28:06;;;;;;;7.92;5.60;;;;;;;19.11;100.00;100907.95;1715267;83;21066;-73
2021/06/20 00:30:34;;;;;;;9.00;5.78;;;;;;;19.09;100.00;100909.89;1715135;83;21431;-76
2021/06/20 00:33:00;;;;;;;8.63;5.03;;;;;;;19.08;100.00;100913.00;1715306;83;20995;-77
2021/06/20 00:35:27;;;;;;;9.20;6.10;;;;;;;19.08;100.00;100921.41;1715338;83;21121;-77
2021/06/20 00:37:55;;;;;;;7.08;6.42;;;;;;;19.06;100.00;100907.08;1715011;83;20951;-77
2021/06/20 00:40:22;;;;;;;8.95;5.90;;;;;;;19.04;100.00;100910.36;1715160;83;20995;-79
2021/06/20 00:42:49;;;;;;;7.90;5.78;;;;;;;19.06;100.00;100906.25;1715269;83;21018;-78
2021/06/20 00:45:19;;;;;;;8.70;6.10;;;;;;;19.06;100.00;100907.56;1715156;83;20995;-73
2021/06/20 00:47:46;;;;;;;7.60;6.12;;;;;;;19.06;100.00;100911.51;1715322;83;21119;-76
2021/06/20 00:50:13;;;;;;;8.98;5.92;;;;;;;19.07;100.00;100913.17;1715245;83;20935;-77
2021/06/20 00:52:41;;;;;;;9.40;6.47;;;;;;;19.08;100.00;100914.84;1715345;83;21460;-75
2021/06/20 00:55:08;;;;;;;6.60;6.00;;;;;;;19.07;100.00;100907.42;1715075;83;21086;-74
2021/06/20 00:57:35;;;;;;;9.93;7.00;;;;;;;19.08;100.00;100912.20;1715319;83;21042;-75
2021/06/20 01:00:05;;;;;;;6.45;5.87;;;;;;;19.08;100.00;100912.20;1715442;83;21104;-75
2021/06/20 01:02:32;;;;;;;6.53;5.92;;;;;;;19.08;100.00;100916.15;1715358;83;21038;-75
2021/06/20 01:04:58;;;;;;;6.65;5.95;;;;;;;19.09;100.00;100920.41;1715374;83;21043;-76
2021/06/20 01:07:25;;;;;;;8.55;6.10;;;;;;;19.08;100.00;100919.58;1715118;83;21366;-74
2021/06/20 01:09:52;;;;;;;10.43;5.80;;;;;;;19.09;100.00;100916.47;1715367;83;21086;-72
2021/06/20 01:12:20;;;;;;;8.85;5.42;;;;;;;19.08;100.00;100914.84;1715157;83;21128;-75
2021/06/20 01:14:48;;;;;;;11.20;5.55;;;;;;;19.07;100.00;100914.00;1715426;83;21023;-74
2021/06/20 01:17:16;;;;;;;6.42;5.50;;;;;;;19.07;100.00;100914.00;1715384;83;21537;-79
2021/06/20 01:19:42;;;;;;;8.25;5.75;;;;;;;19.07;100.00;100909.23;1715309;83;21015;-77
2021/06/20 01:22:25;;;;;;;7.47;5.08;;;;;;;19.06;100.00;100908.88;1715544;83;21045;-70
2021/06/20 01:25:02;;;;;;;7.57;5.23;;;;;;;19.05;100.00;100900.16;1715660;83;21130;-76
2021/06/20 01:27:39;;;;;;;13.68;6.53;;;;;;;19.03;100.00;100898.17;1715235;83;20999;-76
2021/06/20 01:30:10;;;;;;;8.28;5.85;;;;;;;19.01;100.00;100890.45;1715217;83;20998;-76
2021/06/20 01:32:37;;;;;;;5.78;4.60;;;;;;;19.00;100.00;100894.05;1715267;83;21053;-74
2021/06/20 01:35:05;;;;;;;8.08;5.00;;;;;;;19.00;100.00;100901.11;1715439;83;21055;-78
2021/06/20 01:37:32;;;;;;;8.53;5.85;;;;;;;18.98;100.00;100907.02;1715450;83;21127;-75
2021/06/20 01:39:59;;;;;;;7.45;5.75;;;;;;;18.99;100.00;100917.37;1715537;83;21106;-73
2021/06/20 01:42:25;;;;;;;9.13;5.40;;;;;;;18.99;100.00;100917.37;1715584;83;20904;-72
2021/06/20 01:44:57;;;;;;;5.75;5.12;;;;;;;19.00;100.00;100916.41;1715257;83;21581;-76
2021/06/20 01:47:26;;;;;;;10.65;5.47;;;;;;;19.01;100.00;100925.13;1715488;83;21509;-75
2021/06/20 01:49:54;;;;;;;8.50;5.30;;;;;;;19.01;100.00;100914.13;1715280;83;21562;-75
2021/06/20 01:52:25;;;;;;;5.78;4.83;;;;;;;19.00;100.00;100904.56;1715405;83;21006;-73
2021/06/20 01:54:54;;;;;;;6.65;5.15;;;;;;;19.01;100.00;100896.20;1715458;83;21003;-75
2021/06/20 01:57:32;;;;;;;8.35;4.83;;;;;;;18.99;100.00;100896.81;1715328;83;21014;-73
2021/06/20 02:00:01;;;;;;;8.60;5.17;;;;;;;18.99;100.00;100896.33;1714621;83;20936;-75
2021/06/20 02:02:28;;;;;;;7.85;5.25;;;;;;;18.99;100.00;100897.64;1715449;83;21170;-72
2021/06/20 02:04:56;;;;;;;7.25;5.33;;;;;;;19.00;100.00;100894.05;1715212;83;20979;-73
2021/06/20 02:07:25;;;;;;;5.15;4.47;;;;;;;18.99;100.00;100887.13;1715244;83;20947;-76
2021/06/20 02:09:55;;;;;;;7.55;5.15;;;;;;;19.00;100.00;100887.47;1715516;83;20988;-74
2021/06/20 02:12:24;;;;;;;6.40;5.10;;;;;;;18.99;100.00;100883.17;1715416;83;21086;-74
2021/06/20 02:14:51;;;;;;;11.03;5.45;;;;;;;18.99;100.00;100884.49;1715347;83;21961;-74
2021/06/20 02:17:25;;;;;;;9.40;5.58;;;;;;;19.00;100.00;100881.37;1715398;83;20931;-75
2021/06/20 02:19:55;;;;;;;9.58;5.67;;;;;;;18.99;100.00;100876.60;1693303;83;21554;-74
2021/06/20 02:22:22;;;;;;;8.33;5.22;;;;;;;18.97;100.00;100868.05;1715306;83;21003;-76
2021/06/20 02:24:48;;;;;;;7.22;5.08;;;;;;;18.96;100.00;100874.75;1714536;83;21062;-75
2021/06/20 02:27:15;;;;;;;5.45;4.95;;;;;;;18.94;100.00;100877.55;1706017;83;21130;-75
2021/06/20 02:29:44;;;;;;;6.00;5.05;;;;;;;18.94;100.00;100874.92;1712658;83;20943;-74
2021/06/20 02:32:12;;;;;;;9.00;5.22;;;;;;;18.94;100.00;100874.92;1712885;83;20999;-71
2021/06/20 02:34:39;;;;;;;6.42;5.17;;;;;;;18.94;100.00;100880.66;1712727;83;21577;-74
2021/06/20 02:37:06;;;;;;;13.20;5.42;;;;;;;18.95;100.00;100875.75;1712770;83;20869;-74
2021/06/20 02:39:34;;;;;;;6.50;5.67;;;;;;;18.94;100.00;100866.20;1712785;83;21151;-75
2021/06/20 02:42:01;;;;;;;10.03;5.25;;;;;;;18.93;100.00;100854.85;1712649;83;20991;-79
2021/06/20 02:44:28;;;;;;;6.87;5.90;;;;;;;18.91;100.00;100849.41;1712878;83;20955;-75
2021/06/20 02:46:57;;;;;;;8.65;5.62;;;;;;;18.90;100.00;100844.63;1712950;82;20916;-77
2021/06/20 02:49:24;;;;;;;8.43;5.80;;;;;;;18.88;100.00;100837.39;1713147;83;21109;-72
2021/06/20 02:51:51;;;;;;;8.10;5.85;;;;;;;18.86;100.00;100838.02;1712904;82;21148;-73
2021/06/20 02:54:18;;;;;;;12.50;10.10;;;;;;;18.86;100.00;100838.50;1712715;83;20943;-78
2021/06/20 02:56:45;;;;;;;10.98;6.00;;;;;;;18.84;100.00;100834.72;1712949;82;20877;-73
2021/06/20 02:59:12;;;;;;;13.40;5.62;;;;;;;18.83;100.00;100827.80;1712824;83;21059;-74
2021/06/20 03:01:39;;;;;;;6.37;5.78;;;;;;;18.82;100.00;100824.84;1712752;83;20935;-77
2021/06/20 03:04:06;;;;;;;8.65;5.95;;;;;;;18.79;100.00;100815.95;1712946;83;21103;-75
2021/06/20 03:06:33;;;;;;;9.28;6.12;;;;;;;18.77;100.00;100825.77;1712739;83;21578;-77
2021/06/20 03:09:00;;;;;;;9.50;5.97;;;;;;;18.77;100.00;100839.40;1713035;83;21015;-73
2021/06/20 03:11:27;;;;;;;9.00;5.92;;;;;;;18.76;100.00;100841.19;1712869;83;20963;-76
2021/06/20 03:13:54;;;;;;;8.33;6.95;;;;;;;18.76;100.00;100839.88;1706054;82;21537;-76
2021/06/20 03:16:20;;;;;;;7.37;6.33;;;;;;;18.78;100.00;100846.32;1712823;83;21105;-78
2021/06/20 03:18:48;;;;;;;8.18;6.30;;;;;;;18.80;100.00;100843.04;1712496;82;20864;-77
2021/06/20 03:21:16;;;;;;;9.05;6.05;;;;;;;18.82;100.00;100848.52;1712646;83;21058;-81
2021/06/20 03:23:44;;;;;;;10.98;6.28;;;;;;;18.85;100.00;100850.01;1678647;83;20967;-84
2021/06/20 03:26:11;;;;;;;11.00;6.28;;;;;;;18.88;100.00;100847.08;1714745;83;20991;-77
2021/06/20 03:28:37;;;;;;;8.53;6.50;;;;;;;18.91;100.00;100846.78;1715173;83;21187;-78
2021/06/20 03:31:04;;;;;;;11.12;6.12;;;;;;;18.93;100.00;100850.08;1715227;83;20896;-76
2021/06/20 03:33:31;;;;;;;8.55;6.42;;;;;;;18.97;100.00;100852.75;1715357;83;20955;-75
2021/06/20 03:36:01;;;;;;;7.03;6.33;;;;;;;19.00;100.00;100857.70;1715446;83;20959;-79
2021/06/20 03:38:27;;;;;;;8.48;6.28;;;;;;;19.03;100.00;100859.55;1715609;83;20903;-75
2021/06/20 03:40:55;;;;;;;8.20;5.70;;;;;;;19.07;100.00;100855.30;1715091;83;21767;-75
2021/06/20 03:43:21;;;;;;;9.95;6.00;;;;;;;19.10;100.00;100854.52;1715286;83;20999;-76
2021/06/20 03:45:48;;;;;;;10.00;6.53;;;;;;;19.13;100.00;100857.33;1715168;83;21003;-78
2021/06/20 03:48:15;;;;;;;8.48;5.90;;;;;;;19.14;100.00;100867.71;1715434;83;21096;-75
2021/06/20 03:50:41;;;;;;;11.33;6.53;;;;;;;19.17;100.00;100871.84;1715099;83;21536;-75
2021/06/20 03:53:11;;;;;;;8.38;6.08;;;;;;;19.20;100.00;100859.70;1715277;83;21152;-79
2021/06/20 03:55:40;;;;;;;8.13;6.20;;;;;;;19.22;100.00;100853.78;1715308;83;20983;-76
2021/06/20 03:58:07;;;;;;;12.53;5.60;;;;;;;19.21;100.00;100850.32;1715573;83;20947;-79
2021/06/20 04:00:34;;;;;;;11.80;6.30;;;;;;;19.22;100.00;100845.89;1715298;83;21502;-77
2021/06/20 04:03:02;;;;;;;9.40;5.83;;;;;;;19.23;100.00;100839.66;1687830;83;21006;-75
2021/06/20 04:05:29;;;;;;;7.95;6.20;;;;;;;19.25;100.00;100836.38;1715409;83;21123;-77
2021/06/20 04:07:57;;;;;;;6.58;5.97;;;;;;;19.27;100.00;100841.02;1715121;83;20955;-79
2021/06/20 04:10:24;;;;;;;7.35;6.08;;;;;;;19.31;100.00;100830.02;1715152;83;21608;-76
2021/06/20 04:12:52;;;;;;;7.47;6.37;;;;;;;19.35;100.00;100835.80;1715322;83;20982;-77
2021/06/20 04:15:21;;;;;;;9.68;6.33;;;;;;;19.40;100.00;100843.59;1715251;83;21054;-72
2021/06/20 04:17:48;;;;;;;9.93;6.72;;;;;;;19.44;100.00;100833.59;1715102;83;21961;-71
2021/06/20 04:20:16;;;;;;;8.13;6.25;;;;;;;19.47;100.00;100828.84;1715153;83;20900;-71
2021/06/20 04:22:43;;;;;;;9.55;6.75;;;;;;;19.49;100.00;100823.44;1715239;83;21534;-74
2021/06/20 04:25:15;;;;;;;8.38;7.10;;;;;;;19.50;100.00;100825.07;1715225;83;20955;-74
2021/06/20 04:27:43;;;;;;;14.30;7.58;;;;;;;19.51;100.00;100825.42;1715445;83;21070;-74
2021/06/20 04:30:12;;;;;;;11.80;6.50;;;;;;;19.54;100.00;100830.37;1715055;83;21107;-76
2021/06/20 04:32:41;;;;;;;7.50;6.40;;;;;;;19.53;100.00;100820.33;1715194;83;20953;-75
2021/06/20 04:35:10;;;;;;;7.60;6.72;;;;;;;19.56;100.00;100815.75;1715284;83;20979;-75
2021/06/20 04:37:37;;;;;;;9.45;6.50;;;;;;;19.56;100.00;100828.40;1715227;83;21037;-75
2021/06/20 04:40:05;;;;;;;6.92;5.75;;;;;;;19.58;100.00;100830.89;1715166;83;21691;-83
2021/06/20 04:42:38;;;;;;;11.20;6.75;;;;;;;19.56;100.00;100828.40;1715110;83;21087;-75
2021/06/20 04:45:06;;;;;;;12.37;6.92;;;;;;;19.56;100.00;100824.97;1715127;83;20931;-77
2021/06/20 04:47:34;;;;;;;8.68;6.20;;;;;;;19.60;100.00;100822.34;1715252;83;21013;-72
2021/06/20 04:50:00;;;;;;;8.13;7.17;;;;;;;19.62;100.00;100821.22;1714870;83;21034;-75
2021/06/20 04:52:27;;;;;;;7.83;6.58;;;;;;;19.69;100.00;100818.80;1715188;83;20920;-76
2021/06/20 04:54:54;;;;;;;10.05;6.08;;;;;;;19.73;100.00;100819.63;1715098;83;21810;-76
2021/06/20 04:57:29;;;;;;;9.15;6.65;;;;;;;19.78;100.00;100816.05;1715137;83;20888;-75
2021/06/20 05:00:00;;;;;;;7.45;6.42;;;;;;;19.84;100.00;100819.38;1715276;83;21020;-76
2021/06/20 05:02:26;;;;;;;7.72;6.58;;;;;;;19.88;100.00;100825.95;1715118;83;21023;-76
2021/06/20 05:04:53;;;;;;;10.48;7.28;;;;;;;19.89;100.00;100833.37;1715163;83;21059;-73
2021/06/20 05:07:19;;;;;;;7.45;6.75;;;;;;;19.89;100.00;100834.69;1715153;83;21195;-73
2021/06/20 05:09:47;;;;;;;7.35;6.62;;;;;;;19.90;100.00;100838.98;1715036;83;21553;-77
2021/06/20 05:12:14;;;;;;;7.90;7.10;;;;;;;19.91;100.00;100835.38;1715035;83;21061;-74
2021/06/20 05:14:43;;;;;;;8.90;7.75;;;;;;;19.92;100.00;100836.52;1715174;83;20947;-73
2021/06/20 05:17:11;;;;;;;8.18;7.33;;;;;;;19.94;100.00;100837.70;1715108;83;21002;-77
2021/06/20 05:19:38;;;;;;;11.30;7.58;;;;;;;19.93;100.00;100836.03;1715251;83;21097;-73
2021/06/20 05:22:04;;;;;;;7.97;7.17;;;;;;;19.90;100.00;100842.94;1715164;83;20888;-77
2021/06/20 05:24:31;;;;;;;11.73;6.92;;;;;;;19.91;100.00;100841.44;1715185;83;21003;-74
2021/06/20 05:26:58;;;;;;;10.45;7.30;;;;;;;19.92;100.00;100847.06;1712885;83;21020;-75
2021/06/20 05:29:25;;;;;;;12.25;7.50;;;;;;;19.92;100.00;100851.49;1712674;83;20981;-73
2021/06/20 05:31:51;;;;;;;11.25;7.30;;;;;;;19.92;100.00;100848.38;1712536;83;21158;-73
2021/06/20 05:34:18;;;;;;;10.50;7.85;;;;;;;19.94;100.00;100847.72;1712551;83;20964;-74
2021/06/20 05:36:44;;;;;;;13.48;7.28;;;;;;;19.95;100.00;100849.86;1712629;82;20955;-75
2021/06/20 05:39:11;;;;;;;8.88;7.00;;;;;;;19.97;100.00;100854.50;1712356;83;21538;-72
2021/06/20 05:41:38;;;;;;;10.82;7.20;;;;;;;20.01;100.00;100849.23;1712486;83;20923;-73
2021/06/20 05:44:04;;;;;;;9.50;7.20;;;;;;;20.07;100.00;100849.43;1712387;83;21990;-71
2021/06/20 05:46:31;;;;;;;11.15;7.37;;;;;;;20.13;100.00;100846.68;1712281;83;20948;-72
2021/06/20 05:48:59;;;;;;;11.78;8.68;;;;;;;20.18;100.00;100843.06;1712715;83;20986;-72
2021/06/20 05:51:25;;;;;;;10.00;7.67;;;;;;;20.22;100.00;100836.98;1712530;82;20984;-71
2021/06/20 05:53:52;;;;;;;11.38;7.60;;;;;;;20.25;100.00;100836.67;1712825;82;20963;-73
2021/06/20 05:56:20;;;;;;;11.43;7.60;;;;;;;20.28;100.00;100839.02;1712793;83;21156;-72
2021/06/20 05:58:47;;;;;;;9.98;7.30;;;;;;;20.29;100.00;100830.13;1712527;83;20995;-73
2021/06/20 06:01:15;;;;;;;9.43;7.25;;;;;;;20.30;100.00;100835.23;1712753;83;20967;-72
2021/06/20 06:03:42;;;;;;;9.25;8.20;;;;;;;20.33;100.00;100840.18;1712744;83;21494;-73
2021/06/20 06:06:09;;;;;;;10.55;7.83;;;;;;;20.33;100.00;100838.86;1712501;83;21008;-71
2021/06/20 06:08:36;;;;;;;12.15;7.75;;;;;;;20.35;100.00;100833.45;1712689;83;21044;-73
2021/06/20 06:11:03;;;;;;;8.60;7.20;;;;;;;20.34;100.00;100837.89;1712610;82;21530;-72
2021/06/20 06:13:30;;;;;;;9.18;7.67;;;;;;;20.35;100.00;100837.40;1712747;83;20952;-72
2021/06/20 06:15:57;;;;;;;10.38;7.40;;;;;;;20.37;100.00;100836.73;1712642;83;21014;-74
2021/06/20 06:18:24;;;;;;;12.13;7.37;;;;;;;20.38;100.00;100833.95;1712767;82;21141;-74
2021/06/20 06:20:50;;;;;;;8.83;7.25;;;;;;;20.40;100.00;100826.70;1712670;83;21113;-72
2021/06/20 06:23:17;;;;;;;10.65;7.25;;;;;;;20.46;100.00;100824.73;1712254;83;20956;-72
2021/06/20 06:25:43;;;;;;;8.15;7.33;;;;;;;20.55;100.00;100822.94;1712710;83;21537;-73
2021/06/20 06:28:10;;;;;;;11.85;7.65;;;;;;;20.63;100.00;100819.50;1714977;83;21051;-72
2021/06/20 06:30:37;;;;;;;10.18;7.85;;;;;;;20.74;100.00;100810.77;1715021;83;21011;-73
2021/06/20 06:33:05;;;;;;;8.55;7.58;;;;;;;20.93;100.00;100817.05;1715113;83;21976;-74
2021/06/20 06:35:32;;;;;;;10.53;8.30;;;;;;;21.17;100.00;100820.23;1715201;83;20963;-72
2021/06/20 06:37:59;;;;;;;10.13;7.50;;;;;;;21.33;100.00;100820.23;1715100;83;21027;-69
2021/06/20 06:40:28;;;;;;;14.28;7.97;;;;;;;21.30;100.00;100825.84;1715018;83;21043;-71
2021/06/20 06:42:56;;;;;;;14.73;7.62;;;;;;;21.17;100.00;100828.16;1715343;83;21541;-75
2021/06/20 06:45:25;;;;;;;8.35;6.85;;;;;;;21.07;100.00;100826.97;1715360;83;21140;-73
2021/06/20 06:47:52;;;;;;;12.13;7.87;;;;;;;21.03;100.00;100820.85;1715206;83;21098;-72
2021/06/20 06:50:18;;;;;;;9.93;7.65;;;;;;;20.97;100.00;100823.66;1715311;83;20980;-77
2021/06/20 06:52:47;;;;;;;11.68;7.85;;;;;;;20.92;100.00;100827.30;1715176;83;21004;-75
2021/06/20 06:55:14;;;;;;;14.47;8.25;;;;;;;20.92;100.00;100833.06;1715308;83;20892;-72
2021/06/20 06:57:41;;;;;;;11.20;8.10;;;;;;;20.91;100.00;100828.28;1715145;83;21794;-75
2021/06/20 07:00:11;;;;;;;12.90;7.78;;;;;;;20.93;100.00;100826.81;1715105;83;20916;-75
2021/06/20 07:02:37;;;;;;;8.78;6.80;;;;;;;20.93;100.00;100826.30;1715312;83;21010;-73
2021/06/20 07:05:06;;;;;;;7.35;6.62;;;;;;;20.97;100.00;100827.63;1715185;83;20964;-72
2021/06/20 07:07:33;;;;;;;7.28;6.45;;;;;;;21.00;100.00;100831.73;1715291;83;20939;-73
2021/06/20 07:10:01;;;;;;;11.30;6.00;;;;;;;20.98;100.00;100833.73;1715066;83;21518;-75
2021/06/20 07:12:34;;;;;;;9.60;5.95;;;;;;;21.02;100.00;100827.97;1715273;83;20860;-71
2021/06/20 07:15:04;;;;;;;7.00;5.60;;;;;;;21.08;100.00;100825.98;1715041;83;21002;-73
2021/06/20 07:17:33;;;;;;;9.75;6.10;;;;;;;21.24;100.00;100826.52;1715164;83;21011;-78
2021/06/20 07:20:01;;;;;;;11.60;6.47;;;;;;;21.40;100.00;100819.90;1692904;83;21067;-74
2021/06/20 07:22:29;;;;;;;7.17;5.85;;;;;;;21.50;100.00;100819.23;1715341;83;21092;-77
2021/06/20 07:24:57;;;;;;;9.18;6.12;;;;;;;21.66;100.00;100810.94;1715439;83;21479;-72
2021/06/20 07:27:24;;;;;;;7.87;5.83;;;;;;;21.68;100.00;100812.90;1705521;83;20944;-73
2021/06/20 07:29:50;;;;;;;9.15;5.62;;;;;;;21.71;100.00;100820.48;1702906;83;21022;-72
2021/06/20 07:32:17;;;;;;;9.68;5.75;;;;;;;21.86;100.00;100822.74;1702681;83;21012;-78
2021/06/20 07:34:43;;;;;;;8.63;5.50;;;;;;;21.97;100.00;100825.06;1702823;84;21122;-75
2021/06/20 07:37:10;;;;;;;8.55;5.37;;;;;;;22.04;100.00;100822.91;1680577;84;21047;-74
2021/06/20 07:39:37;;;;;;;8.33;5.45;;;;;;;22.12;100.00;100822.85;1702832;83;20992;-73
2021/06/20 07:42:04;;;;;;;7.47;5.35;;;;;;;22.28;100.00;100826.41;1709497;83;21003;-73
2021/06/20 07:44:31;;;;;;;9.30;5.62;;;;;;;22.47;100.00;100828.62;1709857;84;21562;-72
2021/06/20 07:46:59;;;;;;;10.53;5.05;;;;;;;22.60;100.00;100830.20;1709597;84;21476;-77
2021/06/20 07:49:26;;;;;;;11.05;4.95;;;;;;;22.70;100.00;100824.72;1702440;84;20972;-72
2021/06/20 07:51:52;;;;;;;10.00;5.00;;;;;;;22.77;100.00;100830.47;1702486;84;21025;-71
2021/06/20 07:54:19;;;;;;;4.70;4.08;;;;;;;22.93;100.00;100831.67;1702714;84;21554;-71
2021/06/20 07:56:46;;;;;;;7.42;4.50;;;;;;;23.15;99.79;100837.95;1709826;83;21438;-74
2021/06/20 07:59:13;;;;;;;5.90;4.53;;;;;;;23.31;98.21;100844.93;1710457;83;21572;-73
2021/06/20 08:01:39;;;;;;;9.80;5.15;;;;;;;23.42;97.31;100858.59;1709866;83;21585;-73
2021/06/20 08:04:06;;;;;;;7.53;4.50;;;;;;;23.50;96.27;100858.53;1709815;83;20869;-69
2021/06/20 08:06:33;;;;;;;8.25;4.58;;;;;;;23.60;96.56;100861.75;1710042;83;20947;-76
2021/06/20 08:09:00;;;;;;;7.22;4.72;;;;;;;23.73;95.82;100866.42;1708538;84;21000;-73
2021/06/20 08:11:27;;;;;;;6.58;4.70;;;;;;;23.73;93.80;100861.62;1709938;84;21121;-72
2021/06/20 08:13:57;;;;;;;5.35;4.62;;;;;;;23.70;93.86;100864.14;1709769;84;20932;-76
2021/06/20 08:16:25;;;;;;;6.78;5.15;;;;;;;23.63;93.10;100859.23;1709921;83;21019;-74
2021/06/20 08:18:53;;;;;;;8.75;4.97;;;;;;;23.45;92.82;100861.41;1703086;82;21530;-76
2021/06/20 08:21:20;;;;;;;5.40;4.30;;;;;;;23.30;92.92;100859.99;1709917;83;21062;-78
2021/06/20 08:23:49;;;;;;;8.88;5.40;;;;;;;23.13;94.11;100864.59;1710287;83;21087;-78
2021/06/20 08:26:16;;;;;;;6.85;4.78;;;;;;;23.04;95.06;100859.04;1710844;83;20965;-72
2021/06/20 08:28:43;;;;;;;7.35;4.83;;;;;;;22.92;96.16;100853.02;1715092;83;21014;-72
2021/06/20 08:31:10;;;;;;;6.10;4.47;;;;;;;22.93;97.03;100859.96;1715192;83;20999;-69
2021/06/20 08:33:36;;;;;;;7.53;4.78;;;;;;;22.90;97.17;100857.17;1715257;83;21012;-76
2021/06/20 08:36:05;;;;;;;5.72;4.87;;;;;;;22.91;97.65;100856.68;1715233;83;20899;-78
2021/06/20 08:38:32;;;;;;;7.40;4.65;;;;;;;22.99;98.11;100856.61;1715361;83;21535;-78
2021/06/20 08:40:58;;;;;;;10.48;4.53;;;;;;;23.09;97.90;100851.41;1715284;83;20967;-73
2021/06/20 08:43:25;;;;;;;9.63;5.75;;;;;;;23.18;98.23;100846.86;1715266;83;21022;-79
2021/06/20 08:45:54;;;;;;;8.80;5.15;;;;;;;23.31;96.13;100848.91;1715236;83;21090;-77
2021/06/20 08:48:21;;;;;;;6.80;4.85;;;;;;;23.26;94.48;100845.98;1715094;83;22057;-72
2021/06/20 08:50:50;;;;;;;7.50;4.80;;;;;;;23.12;95.32;100848.41;1715111;83;20943;-77
2021/06/20 08:53:20;;;;;;;7.67;4.60;;;;;;;23.13;96.13;100850.56;1714942;83;21470;-70
2021/06/20 08:55:47;;;;;;;7.12;4.25;;;;;;;23.18;96.57;100857.45;1715025;83;21014;-76
2021/06/20 08:58:23;;;;;;;8.70;4.97;;;;;;;23.30;96.77;100843.27;1715077;83;21462;-74
2021/06/20 09:00:50;;;;;;;8.15;4.83;;;;;;;23.43;96.27;100850.97;1715078;83;21101;-75
2021/06/20 09:03:17;;;;;;;6.55;4.60;;;;;;;23.60;96.18;100845.84;1715128;83;21510;-75
2021/06/20 09:06:02;;;;;;;7.97;4.95;;;;;;;23.83;95.96;100843.63;1715093;83;21006;-76
2021/06/20 09:08:30;;;;;;;8.23;5.25;;;;;;;23.89;93.15;100844.22;1715041;83;21600;-73
2021/06/20 09:10:58;;;;;;;6.15;5.35;;;;;;;23.79;93.21;100845.81;1715349;83;21015;-76
2021/06/20 09:13:35;;;;;;;7.30;5.00;;;;;;;23.69;92.50;100839.95;1715402;83;20952;-77
2021/06/20 09:16:05;;;;;;;5.83;4.42;;;;;;;23.48;93.14;100845.15;1715366;83;20979;-73
2021/06/20 09:18:35;;;;;;;9.05;5.22;;;;;;;23.32;93.82;100846.59;1715257;83;21008;-72
2021/06/20 09:21:09;;;;;;;5.72;4.78;;;;;;;23.23;95.10;100842.37;1715185;83;20956;-81
2021/06/20 09:23:41;;;;;;;6.37;4.50;;;;;;;23.15;95.70;100844.57;1715184;83;21035;-73
2021/06/20 09:26:08;;;;;;;5.80;5.30;;;;;;;23.02;97.03;100845.17;1715397;83;21126;-77
2021/06/20 09:28:36;;;;;;;7.25;5.15;;;;;;;22.95;98.41;100836.78;1715467;83;21640;-72
2021/06/20 09:31:04;;;;;;;6.30;5.70;;;;;;;22.82;98.57;100833.89;1715595;83;21494;-73
2021/06/20 09:33:36;;;;;;;5.78;4.55;;;;;;;22.67;98.73;100835.16;1715302;83;21019;-74
2021/06/20 09:36:03;;;;;;;7.80;5.08;;;;;;;22.56;99.17;100827.58;1715403;83;21561;-76
2021/06/20 09:38:35;;;;;;;11.35;5.37;;;;;;;22.45;99.81;100827.98;1715165;83;21145;-73
2021/06/20 09:41:13;;;;;;;7.65;4.72;;;;;;;22.42;100.00;100830.98;1715256;83;20991;-69
2021/06/20 09:43:56;;;;;;;5.03;4.42;;;;;;;22.44;100.00;100825.01;1715119;83;20971;-76
2021/06/20 09:46:22;;;;;;;;;;;;;;;22.50;100.00;100821.17;1717999;83;21596;-75
2021/06/20 09:48:49;;;;;;;10.82;4.50;;;;;;;22.47;100.00;100813.59;1715423;83;20164;-72
2021/06/20 09:51:30;;;;;;;8.25;4.20;;;;;;;22.42;100.00;100825.69;1692536;83;40280;-78
2021/06/20 09:53:53;;;;;;;9.30;3.87;;;;;;;22.41;100.00;100824.03;1714038;83;21526;-74
2021/06/20 09:56:30;;;;;;;9.58;3.85;;;;;;;22.41;100.00;100834.61;1715299;83;21023;-78
2021/06/20 09:59:04;;;;;;;7.50;4.12;;;;;;;22.42;100.00;100831.81;1715358;83;20996;-75
2021/06/20 10:01:35;;;;;;;10.08;4.75;;;;;;;22.37;100.00;100833.34;1715274;83;20990;-70
2021/06/20 10:04:02;;;;;;;10.85;4.72;;;;;;;22.24;100.00;100827.25;1715350;83;21794;-76
2021/06/20 10:06:28;;;;;;;13.05;5.12;;;;;;;21.85;100.00;100817.16;1715446;83;21003;-76
2021/06/20 10:08:57;;;;;;;13.25;5.15;;;;;;;21.05;100.00;100814.94;1715385;83;20908;-78
2021/06/20 10:11:24;;;;;;;15.43;5.40;;;;;;;20.53;100.00;100825.75;1693189;83;21536;-78
2021/06/20 10:13:50;;;;;;;12.98;6.05;;;;;;;20.26;100.00;100821.20;1715289;83;21009;-75
2021/06/20 10:16:27;;;;;;;12.50;7.60;;;;;;;20.12;100.00;100824.42;1715548;83;21076;-85
2021/06/20 10:19:16;;;;;;;10.10;7.22;;;;;;;20.01;100.00;100825.03;1715233;83;21036;-75
2021/06/20 10:22:06;;;;;;;12.75;7.70;;;;;;;19.95;100.00;100821.72;1715102;83;21051;-78
2021/06/20 10:24:46;;;;;;;8.65;7.70;;;;;;;19.92;100.00;100831.25;1715293;83;21490;-81
2021/06/20 10:27:41;;;;;;;16.80;8.78;;;;;;;19.86;100.00;100845.54;1713655;82;20999;-80
2021/06/20 10:30:18;;;;;;;13.08;8.13;;;;;;;19.86;100.00;100859.53;1710190;83;21135;-82
2021/06/20 10:32:47;;;;;;;12.00;7.83;;;;;;;19.85;100.00;100871.53;1679771;83;20908;-76
2021/06/20 10:35:23;;;;;;;26.62;8.55;;;;;;;19.65;100.00;100875.38;1702731;83;21008;-79
2021/06/20 10:37:53;;;;;;;22.58;9.55;;;;;;;19.49;100.00;100892.71;1709772;83;21002;-82
2021/06/20 10:40:31;;;;;;;27.93;12.15;;;;;;;19.32;100.00;100891.36;1703206;83;21003;-81
2021/06/20 10:43:01;;;;;;;14.98;9.05;;;;;;;19.32;100.00;100883.47;1702954;84;21185;-86
2021/06/20 10:45:35;;;;;;;6.65;5.53;;;;;;;19.41;100.00;100857.09;1680724;84;21407;-77
2021/06/20 10:48:23;;;;;;;9.85;6.05;;;;;;;19.06;100.00;100858.90;1702754;84;21403;-77
2021/06/20 10:50:54;;;;;;;13.68;6.62;;;;;;;18.76;100.00;100845.66;1709671;83;21062;-79
2021/06/20 10:53:22;;;;;;;11.97;6.22;;;;;;;18.60;100.00;100866.03;1703178;83;21540;-83
2021/06/20 10:55:57;;;;;;;7.12;4.78;;;;;;;18.51;100.00;100870.83;1709936;83;22449;-81
2021/06/20 10:58:28;;;;;;;9.98;5.25;;;;;;;18.36;100.00;100876.20;1702967;83;21028;-75
2021/06/20 11:01:11;;;;;;;6.83;4.00;;;;;;;18.19;100.00;100883.53;1702564;84;21074;-83
2021/06/20 11:03:41;;;;;;;7.97;3.80;;;;;;;18.03;100.00;100884.15;1709551;83;20992;-77
2021/06/20 11:06:15;;;;;;;6.20;4.00;;;;;;;17.94;100.00;100892.41;1708794;84;21074;-74
2021/06/20 11:08:58;;;;;;;4.45;4.03;;;;;;;17.88;100.00;100889.05;1702811;84;21486;-75
2021/06/20 11:11:27;;;;;;;6.80;4.80;;;;;;;17.85;100.00;100889.33;1709586;82;21015;-75
2021/06/20 11:14:02;;;;;;;9.00;4.15;;;;;;;17.84;100.00;100890.29;1708378;84;21486;-75
2021/06/20 11:16:39;;;;;;;7.10;3.90;;;;;;;17.80;100.00;100888.94;1702721;84;21023;-76
2021/06/20 11:19:17;;;;;;;6.15;3.87;;;;;;;17.78;100.00;100892.66;1709704;83;21395;-76
2021/06/20 11:21:56;;;;;;;6.92;3.85;;;;;;;17.72;100.00;100887.49;1709643;84;22680;-82
2021/06/20 11:24:30;;;;;;;6.42;4.20;;;;;;;17.71;100.00;100882.41;1710182;83;21013;-76